Time;durP1;ratioP1;P1;durP2;ratioP2;P2;SDS_P1;SDS_P2;PMS_P1;PMS_P2;Temp;Humidity;BMP_temperature;BMP_pressure;BME280_temperature;BME280_humidity;BME280_pressure;Samples;Min_cycle;Max_cycle;Signal;HPM_P1;HPM_P2
2022/09/10 00:01:32;;;;;;;5.70;5.20;;;15.20;99.90;;;;;;4940313;29;20277;-78
2022/09/10 00:03:59;;;;;;;6.10;5.60;;;15.20;99.90;;;;;;4939557;29;20261;-78
2022/09/10 00:06:27;;;;;;;5.63;5.13;;;15.20;99.90;;;;;;4939803;29;20203;-78
2022/09/10 00:08:56;;;;;;;6.30;5.80;;;15.20;99.90;;;;;;4941341;29;20288;-78
2022/09/10 00:11:23;;;;;;;7.43;5.87;;;15.20;99.90;;;;;;4940804;29;20229;-78
2022/09/10 00:13:51;;;;;;;4.63;4.23;;;15.30;99.90;;;;;;4939630;29;20299;-78
2022/09/10 00:16:19;;;;;;;4.93;4.33;;;15.20;99.90;;;;;;4941705;29;20575;-77
2022/09/10 00:18:47;;;;;;;5.10;4.43;;;15.20;99.90;;;;;;4940589;29;20734;-77
2022/09/10 00:21:17;;;;;;;3.70;3.40;;;15.20;99.90;;;;;;4940833;29;20221;-78
2022/09/10 00:23:44;;;;;;;5.80;5.30;;;15.20;99.90;;;;;;4940708;29;20260;-77
2022/09/10 00:26:14;;;;;;;5.60;2.87;;;15.20;99.90;;;;;;4939357;29;20201;-78
2022/09/10 00:28:41;;;;;;;3.77;1.93;;;15.10;99.90;;;;;;4939663;29;20196;-78
2022/09/10 00:31:10;;;;;;;7.17;2.23;;;15.10;99.90;;;;;;4939086;29;20252;-78
2022/09/10 00:33:37;;;;;;;3.30;2.17;;;15.10;99.90;;;;;;4938695;29;20219;-78
2022/09/10 00:36:13;;;;;;;4.87;3.43;;;15.10;99.90;;;;;;4939292;29;20244;-78
2022/09/10 00:38:39;;;;;;;3.27;2.97;;;15.10;99.90;;;;;;4941090;29;20262;-78
2022/09/10 00:41:07;;;;;;;3.03;2.40;;;15.10;99.90;;;;;;4940679;29;20243;-78
2022/09/10 00:43:55;;;;;;;4.50;4.20;;;15.10;99.90;;;;;;4939135;29;20213;-78
2022/09/10 00:46:31;;;;;;;4.90;4.50;;;15.10;99.90;;;;;;4933392;29;20260;-78
2022/09/10 00:49:01;;;;;;;4.10;3.80;;;15.10;99.90;;;;;;4939072;29;20204;-78
2022/09/10 00:51:32;;;;;;;3.93;2.97;;;15.00;99.90;;;;;;4938974;29;20214;-78
2022/09/10 00:54:00;;;;;;;5.53;5.00;;;15.10;99.90;;;;;;4940423;29;20215;-78
2022/09/10 00:56:28;;;;;;;5.40;5.10;;;15.10;99.90;;;;;;4939088;29;20201;-78
2022/09/10 00:58:55;;;;;;;4.83;4.43;;;15.10;99.90;;;;;;4938957;29;20266;-78
2022/09/10 01:01:23;;;;;;;4.60;4.20;;;15.10;99.90;;;;;;4938958;29;20233;-78
2022/09/10 01:03:52;;;;;;;4.67;4.27;;;15.10;99.90;;;;;;4938698;29;20205;-77
2022/09/10 01:06:19;;;;;;;5.17;4.77;;;15.10;99.90;;;;;;4938808;29;20882;-77
2022/09/10 01:08:46;;;;;;;4.60;4.20;;;15.20;99.90;;;;;;4939741;29;20206;-78
2022/09/10 01:11:32;;;;;;;4.47;4.10;;;15.20;99.90;;;;;;4938376;29;20710;-78
2022/09/10 01:14:16;;;;;;;4.47;4.17;;;15.20;99.90;;;;;;4938768;29;20213;-77
2022/09/10 01:16:54;;;;;;;4.43;4.13;;;15.20;99.90;;;;;;4939029;29;20205;-78
2022/09/10 01:19:44;;;;;;;4.50;4.20;;;15.20;99.90;;;;;;4934131;29;20275;-78
2022/09/10 01:22:25;;;;;;;4.17;3.90;;;15.30;99.90;;;;;;4938786;29;20277;-78
2022/09/10 01:24:55;;;;;;;4.20;3.90;;;15.30;99.90;;;;;;4938065;29;20206;-78
2022/09/10 01:27:36;;;;;;;2.60;2.50;;;15.30;99.90;;;;;;4938293;29;20199;-77
2022/09/10 01:30:11;;;;;;;2.03;1.83;;;15.30;99.90;;;;;;4939278;29;20253;-77
2022/09/10 01:32:51;;;;;;;2.83;1.80;;;15.40;99.90;;;;;;4933800;29;20216;-78
2022/09/10 01:35:24;;;;;;;2.43;1.70;;;15.40;99.90;;;;;;4933082;29;20219;-77
2022/09/10 01:37:55;;;;;;;2.07;1.83;;;15.40;99.90;;;;;;4938588;29;20258;-78
2022/09/10 01:40:28;;;;;;;2.13;1.63;;;15.50;99.90;;;;;;4938891;29;20225;-77
2022/09/10 01:43:01;;;;;;;1.70;1.60;;;15.40;99.90;;;;;;4938841;29;20208;-78
2022/09/10 01:45:29;;;;;;;2.60;2.40;;;15.50;99.90;;;;;;4938789;29;20202;-78
2022/09/10 01:48:10;;;;;;;4.17;3.83;;;15.50;99.90;;;;;;4940352;29;20205;-78
2022/09/10 01:50:49;;;;;;;3.43;2.50;;;15.50;99.90;;;;;;4938744;29;20302;-78
2022/09/10 01:53:38;;;;;;;2.40;2.20;;;15.50;99.90;;;;;;4931420;29;20208;-78
2022/09/10 01:56:19;;;;;;;2.60;2.50;;;15.50;99.90;;;;;;4937932;29;20610;-78
2022/09/10 01:58:47;;;;;;;3.50;3.20;;;15.40;99.90;;;;;;4939121;29;20198;-78
2022/09/10 02:01:25;;;;;;;3.10;2.87;;;15.40;99.90;;;;;;4939130;29;20213;-78
2022/09/10 02:03:59;;;;;;;2.10;1.70;;;15.40;99.90;;;;;;4939719;29;20210;-78
2022/09/10 02:06:29;;;;;;;3.87;1.90;;;15.50;99.90;;;;;;4942179;29;20222;-78
2022/09/10 02:08:59;;;;;;;1.70;1.60;;;15.40;99.90;;;;;;4941435;29;20216;-77
2022/09/10 02:11:27;;;;;;;1.93;1.70;;;15.50;99.90;;;;;;4942159;29;20312;-78
2022/09/10 02:13:58;;;;;;;1.60;1.50;;;15.50;99.90;;;;;;4942313;29;20205;-78
2022/09/10 02:16:36;;;;;;;2.90;1.70;;;15.50;99.90;;;;;;4938757;29;20193;-78
2022/09/10 02:19:04;;;;;;;2.63;2.43;;;15.50;99.90;;;;;;4941746;29;20718;-78
2022/09/10 02:21:32;;;;;;;8.53;7.80;;;15.50;99.90;;;;;;4942277;29;20229;-78
2022/09/10 02:24:04;;;;;;;7.53;5.20;;;15.50;99.90;;;;;;4941896;29;20630;-78
2022/09/10 02:26:32;;;;;;;3.30;3.00;;;15.50;99.90;;;;;;4942037;29;20212;-78
2022/09/10 02:29:01;;;;;;;3.30;3.20;;;15.50;99.90;;;;;;4942774;29;20224;-77
2022/09/10 02:31:28;;;;;;;4.30;3.80;;;15.50;99.90;;;;;;4941253;29;20250;-78
2022/09/10 02:33:55;;;;;;;3.83;3.63;;;15.40;99.90;;;;;;4941055;29;20703;-78
2022/09/10 02:36:25;;;;;;;4.07;3.70;;;15.40;99.90;;;;;;4941275;29;20201;-78
2022/09/10 02:38:55;;;;;;;4.20;3.90;;;15.40;99.90;;;;;;4940707;29;20228;-78
2022/09/10 02:41:25;;;;;;;4.70;4.30;;;15.40;99.90;;;;;;4941629;29;20232;-78
2022/09/10 02:43:53;;;;;;;3.37;3.10;;;15.40;99.90;;;;;;4941314;29;20207;-78
2022/09/10 02:46:22;;;;;;;2.37;1.60;;;15.30;99.90;;;;;;4941329;29;20199;-78
2022/09/10 02:48:49;;;;;;;2.10;1.90;;;15.30;99.90;;;;;;4941983;29;20208;-78
2022/09/10 02:51:16;;;;;;;2.80;1.67;;;15.30;99.90;;;;;;4941662;29;20230;-77
2022/09/10 02:53:43;;;;;;;1.70;1.53;;;15.30;99.90;;;;;;4942073;29;20202;-78
2022/09/10 02:56:11;;;;;;;1.67;1.57;;;15.30;99.90;;;;;;4949067;29;20238;-78
2022/09/10 02:58:38;;;;;;;2.50;1.70;;;15.30;99.90;;;;;;4941306;29;20210;-78
2022/09/10 03:01:07;;;;;;;1.80;1.70;;;15.30;99.90;;;;;;4943736;29;20239;-78
2022/09/10 03:03:35;;;;;;;2.60;1.60;;;15.30;99.90;;;;;;4940175;29;20291;-80
2022/09/10 03:06:03;;;;;;;1.77;1.67;;;15.20;99.90;;;;;;4939367;29;20207;-78
2022/09/10 03:08:30;;;;;;;2.00;1.80;;;15.20;99.90;;;;;;4941593;29;20199;-78
2022/09/10 03:10:59;;;;;;;2.03;1.93;;;15.20;99.90;;;;;;4941444;29;20239;-78
2022/09/10 03:13:26;;;;;;;2.47;1.87;;;15.10;99.90;;;;;;4939554;29;20295;-77
2022/09/10 03:15:54;;;;;;;1.87;1.77;;;15.10;99.90;;;;;;4936522;29;20604;-78
2022/09/10 03:18:22;;;;;;;2.10;1.87;;;15.10;99.90;;;;;;4937336;29;20203;-77
2022/09/10 03:20:50;;;;;;;1.87;1.70;;;15.10;99.90;;;;;;4931910;29;20226;-76
2022/09/10 03:23:18;;;;;;;1.70;1.60;;;15.10;99.90;;;;;;4933676;29;20306;-75
2022/09/10 03:25:45;;;;;;;2.33;2.00;;;15.00;99.90;;;;;;4932305;29;20196;-75
2022/09/10 03:28:15;;;;;;;2.23;1.87;;;15.00;99.90;;;;;;4933140;29;20757;-75
2022/09/10 03:30:42;;;;;;;1.97;1.80;;;15.00;99.90;;;;;;4935926;29;20222;-76
2022/09/10 03:33:10;;;;;;;2.80;1.90;;;14.90;99.90;;;;;;4933509;29;20195;-75
2022/09/10 03:35:37;;;;;;;2.83;1.80;;;15.00;99.90;;;;;;4934261;29;20215;-75
2022/09/10 03:38:05;;;;;;;2.03;1.80;;;15.00;99.90;;;;;;4933571;29;20262;-75
2022/09/10 03:40:33;;;;;;;1.90;1.80;;;14.90;99.90;;;;;;4934474;29;20220;-75
2022/09/10 03:43:00;;;;;;;2.10;1.90;;;14.90;99.90;;;;;;4934580;29;20430;-75
2022/09/10 03:45:27;;;;;;;2.10;1.90;;;14.80;99.90;;;;;;4932639;29;20208;-75
2022/09/10 03:47:54;;;;;;;4.73;2.20;;;14.80;99.90;;;;;;4926142;29;20209;-75
2022/09/10 03:50:21;;;;;;;2.13;1.93;;;14.80;99.90;;;;;;4930644;29;20782;-75
2022/09/10 03:52:47;;;;;;;2.83;1.80;;;14.70;99.90;;;;;;4920657;29;20206;-75
2022/09/10 03:55:16;;;;;;;2.03;1.80;;;14.70;99.90;;;;;;4931487;29;20221;-75
2022/09/10 03:57:45;;;;;;;2.30;1.90;;;14.60;99.90;;;;;;4945162;28;20682;-75
2022/09/10 04:00:12;;;;;;;2.00;1.90;;;14.60;99.90;;;;;;4933890;29;20709;-75
2022/09/10 04:02:42;;;;;;;2.00;1.80;;;14.60;99.90;;;;;;4931822;29;20199;-75
2022/09/10 04:05:10;;;;;;;2.00;1.90;;;14.60;99.90;;;;;;4933118;29;20294;-75
2022/09/10 04:07:37;;;;;;;2.00;1.90;;;14.60;99.90;;;;;;4933875;29;20206;-77
2022/09/10 04:10:05;;;;;;;2.37;2.10;;;14.60;99.90;;;;;;4927969;29;20243;-77
2022/09/10 04:12:35;;;;;;;2.10;1.90;;;14.60;99.90;;;;;;4936395;29;20696;-77
2022/09/10 04:15:03;;;;;;;2.30;2.07;;;14.50;99.90;;;;;;4936316;29;20227;-78
2022/09/10 04:17:31;;;;;;;3.00;2.40;;;14.50;99.90;;;;;;4936471;29;20199;-77
2022/09/10 04:19:58;;;;;;;7.20;6.70;;;14.50;99.90;;;;;;4936299;29;20287;-78
2022/09/10 04:22:27;;;;;;;7.10;6.70;;;14.50;99.90;;;;;;4937594;29;20199;-77
2022/09/10 04:24:54;;;;;;;7.20;6.80;;;14.50;99.90;;;;;;4935384;29;20674;-77
2022/09/10 04:27:21;;;;;;;7.00;6.60;;;14.50;99.90;;;;;;4934909;29;20210;-77
2022/09/10 04:29:50;;;;;;;7.23;6.73;;;14.50;99.90;;;;;;4935288;29;20727;-78
2022/09/10 04:32:18;;;;;;;7.30;6.80;;;14.60;99.90;;;;;;4934765;29;20200;-77
2022/09/10 04:34:45;;;;;;;7.10;6.70;;;14.60;99.90;;;;;;4933797;29;20227;-75
2022/09/10 04:37:12;;;;;;;7.30;6.80;;;14.50;99.90;;;;;;4933645;29;20183;-75
2022/09/10 04:39:40;;;;;;;7.73;7.23;;;14.50;99.90;;;;;;4933697;29;20202;-75
2022/09/10 04:42:08;;;;;;;7.50;7.00;;;14.50;99.90;;;;;;4933593;29;20203;-75
2022/09/10 04:44:36;;;;;;;7.60;7.00;;;14.50;99.90;;;;;;4939181;29;20233;-75
2022/09/10 04:47:05;;;;;;;7.03;6.57;;;14.60;99.90;;;;;;4934676;29;20579;-75
2022/09/10 04:49:33;;;;;;;7.53;7.03;;;14.60;99.90;;;;;;4934728;29;20239;-75
2022/09/10 04:52:01;;;;;;;4.97;4.67;;;14.60;99.90;;;;;;4933495;29;20212;-75
2022/09/10 04:54:28;;;;;;;5.20;4.90;;;14.70;99.90;;;;;;4933232;29;20197;-75
2022/09/10 04:56:55;;;;;;;5.67;5.27;;;14.70;99.90;;;;;;4933177;29;20279;-75
2022/09/10 04:59:23;;;;;;;5.30;5.00;;;14.60;99.90;;;;;;4933285;29;20303;-75
2022/09/10 05:01:50;;;;;;;4.87;4.57;;;14.60;99.90;;;;;;4933263;29;20247;-75
2022/09/10 05:04:19;;;;;;;5.30;5.00;;;14.60;99.90;;;;;;4933390;29;20195;-77
2022/09/10 05:06:49;;;;;;;5.70;5.30;;;14.60;99.90;;;;;;4933163;29;20201;-77
2022/09/10 05:09:16;;;;;;;5.40;5.10;;;14.60;99.90;;;;;;4933625;29;20223;-77
2022/09/10 05:11:45;;;;;;;4.87;4.40;;;14.60;99.90;;;;;;4933503;29;20287;-77
2022/09/10 05:14:13;;;;;;;5.13;4.80;;;14.60;99.90;;;;;;4925832;29;20290;-76
2022/09/10 05:16:40;;;;;;;4.93;4.63;;;14.60;99.90;;;;;;4933306;29;20215;-77
2022/09/10 05:19:07;;;;;;;5.20;4.90;;;14.60;99.90;;;;;;4933466;29;20258;-77
2022/09/10 05:21:43;;;;;;;4.63;4.33;;;14.60;99.90;;;;;;4933762;29;20217;-77
2022/09/10 05:24:10;;;;;;;4.60;4.40;;;14.60;99.90;;;;;;4931651;29;20405;-77
2022/09/10 05:26:37;;;;;;;4.47;4.07;;;14.60;99.90;;;;;;4934923;29;20282;-77
2022/09/10 05:29:05;;;;;;;4.20;4.00;;;14.70;99.90;;;;;;4933432;29;20290;-77
2022/09/10 05:31:32;;;;;;;4.93;4.63;;;14.70;99.90;;;;;;4933417;29;20223;-76
2022/09/10 05:34:00;;;;;;;4.37;4.07;;;14.70;99.90;;;;;;4932682;29;20761;-77
2022/09/10 05:36:27;;;;;;;4.50;4.20;;;14.80;99.90;;;;;;4934366;29;20221;-77
2022/09/10 05:38:55;;;;;;;6.27;5.87;;;14.80;99.90;;;;;;4935851;29;20213;-77
2022/09/10 05:41:22;;;;;;;6.07;5.67;;;14.90;99.90;;;;;;4939486;29;20216;-77
2022/09/10 05:43:49;;;;;;;6.50;6.10;;;15.00;99.90;;;;;;4938127;29;20725;-78
2022/09/10 05:46:19;;;;;;;8.57;8.07;;;14.90;99.90;;;;;;4939416;29;20234;-77
2022/09/10 05:48:49;;;;;;;9.23;8.70;;;14.90;99.90;;;;;;4937559;29;20300;-77
2022/09/10 05:51:18;;;;;;;9.70;8.97;;;15.00;99.90;;;;;;4937162;29;20236;-77
2022/09/10 05:53:46;;;;;;;9.63;9.13;;;15.00;99.90;;;;;;4937607;29;20199;-77
2022/09/10 05:56:14;;;;;;;8.17;7.67;;;15.00;99.90;;;;;;4937560;29;20318;-77
2022/09/10 05:58:43;;;;;;;6.90;6.50;;;15.00;99.90;;;;;;4937553;29;20200;-77
2022/09/10 06:01:11;;;;;;;6.80;6.40;;;15.00;99.90;;;;;;4936723;29;20311;-77
2022/09/10 06:03:40;;;;;;;8.30;7.80;;;15.00;99.90;;;;;;4937567;29;20683;-77
2022/09/10 06:06:08;;;;;;;7.83;7.40;;;15.10;99.90;;;;;;4937878;29;20207;-77
2022/09/10 06:08:38;;;;;;;7.63;7.20;;;15.00;99.90;;;;;;4934668;29;20193;-77
2022/09/10 06:11:14;;;;;;;7.60;7.20;;;15.10;99.90;;;;;;4925795;29;20308;-77
2022/09/10 06:13:47;;;;;;;7.63;7.23;;;15.10;99.90;;;;;;4950033;28;20195;-77
2022/09/10 06:16:14;;;;;;;2.40;2.23;;;15.10;99.90;;;;;;4937009;29;20219;-77
2022/09/10 06:18:43;;;;;;;2.77;2.10;;;15.10;99.90;;;;;;4937333;29;20199;-78
2022/09/10 06:21:15;;;;;;;2.17;2.07;;;15.10;99.90;;;;;;4935276;29;20247;-77
2022/09/10 06:23:44;;;;;;;3.17;2.10;;;15.10;99.90;;;;;;4937242;29;20203;-77
2022/09/10 06:26:15;;;;;;;2.33;2.17;;;15.10;99.90;;;;;;4931689;29;20194;-77
2022/09/10 06:28:43;;;;;;;2.27;2.17;;;15.20;99.90;;;;;;4938178;29;20202;-77
2022/09/10 06:31:15;;;;;;;2.10;2.00;;;15.20;99.90;;;;;;4934167;29;20220;-77
2022/09/10 06:33:43;;;;;;;3.23;2.17;;;15.20;99.90;;;;;;4934057;29;20571;-77
2022/09/10 06:36:11;;;;;;;1.93;1.83;;;15.20;99.90;;;;;;4950460;28;20310;-77
2022/09/10 06:38:38;;;;;;;2.50;2.30;;;15.30;99.90;;;;;;4937089;29;20207;-77
2022/09/10 06:41:08;;;;;;;2.40;2.20;;;15.30;99.90;;;;;;4936080;29;20221;-77
2022/09/10 06:43:41;;;;;;;2.20;2.10;;;15.40;99.90;;;;;;4936887;29;20206;-77
2022/09/10 06:46:14;;;;;;;3.73;3.53;;;15.40;99.90;;;;;;4935653;29;20195;-78
2022/09/10 06:49:02;;;;;;;6.53;6.20;;;15.50;99.90;;;;;;4916716;29;20292;-77
2022/09/10 06:51:33;;;;;;;8.47;7.97;;;15.50;99.90;;;;;;4935224;28;20229;-77
2022/09/10 06:54:01;;;;;;;7.87;7.37;;;15.60;99.90;;;;;;4936404;29;20679;-76
2022/09/10 06:56:29;;;;;;;8.20;7.70;;;15.60;99.90;;;;;;4936818;29;20228;-77
2022/09/10 06:58:58;;;;;;;2.10;2.00;;;15.60;99.90;;;;;;4937024;29;20207;-77
2022/09/10 07:01:28;;;;;;;2.00;1.90;;;15.60;99.90;;;;;;4936875;29;20226;-77
2022/09/10 07:03:59;;;;;;;2.20;2.00;;;15.60;99.90;;;;;;4935936;29;20695;-77
2022/09/10 07:06:30;;;;;;;2.97;2.27;;;15.70;99.90;;;;;;4936786;29;20198;-77
2022/09/10 07:09:04;;;;;;;7.00;6.50;;;15.80;99.90;;;;;;4937465;29;20271;-77
2022/09/10 07:11:36;;;;;;;7.70;7.20;;;15.80;99.90;;;;;;4936940;29;20233;-80
2022/09/10 07:14:06;;;;;;;8.17;7.67;;;15.90;99.90;;;;;;4937347;29;20218;-77
2022/09/10 07:16:34;;;;;;;8.33;7.83;;;15.90;99.90;;;;;;4937712;29;20263;-77
2022/09/10 07:19:01;;;;;;;7.37;6.87;;;15.90;99.90;;;;;;4937937;29;20224;-78
2022/09/10 07:21:36;;;;;;;7.60;7.20;;;15.90;99.90;;;;;;4937535;29;20233;-76
2022/09/10 07:24:10;;;;;;;8.33;7.83;;;15.90;99.90;;;;;;4938658;29;20229;-78
2022/09/10 07:26:38;;;;;;;6.90;6.50;;;16.00;99.90;;;;;;4938193;29;20203;-80
2022/09/10 07:29:06;;;;;;;2.67;2.47;;;16.10;99.90;;;;;;4937507;29;20696;-77
2022/09/10 07:31:36;;;;;;;7.10;6.60;;;16.30;99.90;;;;;;4935063;29;20222;-82
2022/09/10 07:34:08;;;;;;;2.13;1.80;;;16.50;99.90;;;;;;4936862;29;20214;-77
2022/09/10 07:36:36;;;;;;;3.17;1.90;;;16.70;99.90;;;;;;4934597;29;20222;-76
2022/09/10 07:39:04;;;;;;;2.10;2.00;;;17.30;99.90;;;;;;4933840;29;20213;-76
2022/09/10 07:41:35;;;;;;;2.17;2.00;;;17.60;99.90;;;;;;4935109;29;20642;-76
2022/09/10 07:44:06;;;;;;;5.73;5.33;;;17.80;99.90;;;;;;4934411;29;20213;-76
2022/09/10 07:46:37;;;;;;;1.73;1.73;;;17.90;99.90;;;;;;4940935;29;20557;-77
2022/09/10 07:49:09;;;;;;;3.33;2.00;;;17.90;99.90;;;;;;4934724;29;20226;-77
2022/09/10 07:51:38;;;;;;;7.50;7.10;;;17.70;99.90;;;;;;4934493;29;20230;-76
2022/09/10 07:54:05;;;;;;;6.80;6.50;;;17.70;99.90;;;;;;4933832;29;20195;-76
2022/09/10 07:56:39;;;;;;;6.23;5.93;;;17.50;99.90;;;;;;4934373;29;20219;-77
2022/09/10 07:59:10;;;;;;;6.50;6.13;;;17.40;99.90;;;;;;4934378;29;20683;-77
2022/09/10 08:01:45;;;;;;;6.60;6.30;;;17.30;99.90;;;;;;4931023;29;20211;-76
2022/09/10 08:04:15;;;;;;;6.90;6.50;;;17.20;99.90;;;;;;4933761;29;20227;-77
2022/09/10 08:06:42;;;;;;;6.73;6.40;;;17.30;99.90;;;;;;4935914;29;20203;-78
2022/09/10 08:09:09;;;;;;;7.20;6.80;;;17.40;99.90;;;;;;4929826;29;20270;-77
2022/09/10 08:11:41;;;;;;;7.10;6.70;;;17.40;99.90;;;;;;4936100;29;20239;-78
2022/09/10 08:14:13;;;;;;;7.57;7.10;;;17.50;99.90;;;;;;4929239;29;20237;-77
2022/09/10 08:16:40;;;;;;;7.10;6.70;;;17.50;99.90;;;;;;4933122;29;20259;-77
2022/09/10 08:19:12;;;;;;;7.00;6.60;;;17.60;99.90;;;;;;4937474;29;20212;-78
2022/09/10 08:21:39;;;;;;;6.70;6.30;;;17.70;99.90;;;;;;4937260;29;20724;-77
2022/09/10 08:24:07;;;;;;;6.47;6.13;;;18.00;99.90;;;;;;4937121;29;20645;-77
2022/09/10 08:26:35;;;;;;;5.97;5.67;;;18.40;99.90;;;;;;4931844;29;20586;-78
2022/09/10 08:29:04;;;;;;;7.37;6.80;;;18.80;99.90;;;;;;4933671;29;20240;-79
2022/09/10 08:31:33;;;;;;;7.10;6.70;;;19.20;99.90;;;;;;4926863;29;20220;-77
2022/09/10 08:34:16;;;;;;;6.60;6.20;;;19.60;99.90;;;;;;4932866;29;20675;-78
2022/09/10 08:36:49;;;;;;;6.53;6.13;;;19.90;99.90;;;;;;4935475;29;20222;-78
2022/09/10 08:39:16;;;;;;;8.10;7.60;;;20.40;99.90;;;;;;4934217;29;20260;-79
2022/09/10 08:41:51;;;;;;;6.93;6.53;;;20.50;99.90;;;;;;4934602;29;20225;-79
2022/09/10 08:44:31;;;;;;;7.43;7.03;;;20.90;99.90;;;;;;4930648;28;20571;-78
2022/09/10 08:47:07;;;;;;;7.33;6.90;;;21.90;99.90;;;;;;4940674;28;20199;-78
2022/09/10 08:49:40;;;;;;;2.20;2.10;;;22.20;99.90;;;;;;4931050;29;20249;-77
2022/09/10 08:52:20;;;;;;;4.33;1.90;;;22.50;99.90;;;;;;4933211;29;20678;-77
2022/09/10 08:54:59;;;;;;;7.23;6.77;;;22.40;99.90;;;;;;4932704;29;20243;-78
2022/09/10 08:57:31;;;;;;;4.10;3.70;;;22.20;99.90;;;;;;4932836;29;20301;-78
2022/09/10 09:00:01;;;;;;;3.03;2.73;;;22.30;99.90;;;;;;4932904;29;20700;-78
2022/09/10 09:02:36;;;;;;;4.70;4.40;;;22.70;99.90;;;;;;4933310;29;20215;-78
2022/09/10 09:05:09;;;;;;;2.70;2.27;;;22.80;99.90;;;;;;4934198;29;20202;-78
2022/09/10 09:07:38;;;;;;;3.90;2.83;;;22.50;99.90;;;;;;4933287;29;20199;-78
2022/09/10 09:10:18;;;;;;;2.37;1.63;;;22.20;99.90;;;;;;4932803;29;20233;-77
2022/09/10 09:12:55;;;;;;;2.63;2.43;;;21.80;99.90;;;;;;4932721;29;20653;-78
2022/09/10 09:15:27;;;;;;;4.10;3.90;;;21.50;99.90;;;;;;4932886;29;20293;-78
2022/09/10 09:18:09;;;;;;;3.73;3.43;;;21.50;99.90;;;;;;4933022;29;20227;-78
2022/09/10 09:20:43;;;;;;;1.93;1.77;;;21.30;99.90;;;;;;4932978;29;20226;-78
2022/09/10 09:23:20;;;;;;;5.07;3.60;;;21.20;99.90;;;;;;4933088;29;20207;-77
2022/09/10 09:25:50;;;;;;;5.30;4.80;;;21.10;99.90;;;;;;4933012;29;20211;-78
2022/09/10 09:28:31;;;;;;;3.20;2.80;;;20.90;99.90;;;;;;4932961;29;20560;-77
2022/09/10 09:31:03;;;;;;;5.53;5.13;;;20.80;99.90;;;;;;4932990;29;20225;-77
2022/09/10 09:33:33;;;;;;;6.63;6.03;;;20.60;99.90;;;;;;4934081;29;20199;-78
2022/09/10 09:36:02;;;;;;;6.90;6.40;;;20.60;99.90;;;;;;4927938;29;20202;-77
2022/09/10 09:38:34;;;;;;;5.30;4.90;;;20.60;99.90;;;;;;4933070;29;20206;-77
2022/09/10 09:41:06;;;;;;;6.20;5.80;;;20.40;99.90;;;;;;4932837;29;20223;-78
2022/09/10 09:43:51;;;;;;;6.90;6.40;;;20.30;99.90;;;;;;4932600;29;20203;-78
2022/09/10 09:46:20;;;;;;;2.37;1.93;;;20.20;99.90;;;;;;4926368;29;20246;-78
2022/09/10 09:48:56;;;;;;;3.27;1.70;;;20.20;99.90;;;;;;4932831;29;20203;-78
2022/09/10 09:51:26;;;;;;;2.90;1.80;;;20.20;99.90;;;;;;4933058;29;20245;-78
2022/09/10 09:53:57;;;;;;;5.47;4.10;;;20.20;99.90;;;;;;4932566;29;20195;-76
2022/09/10 09:56:29;;;;;;;2.67;1.80;;;20.10;99.90;;;;;;4932989;29;20203;-78
2022/09/10 09:58:57;;;;;;;4.20;3.80;;;19.90;99.90;;;;;;4935268;29;20204;-78
2022/09/10 10:01:25;;;;;;;1.80;1.70;;;19.80;99.90;;;;;;4936145;29;20219;-78
2022/09/10 10:04:00;;;;;;;2.97;2.70;;;19.80;99.90;;;;;;4938140;29;20253;-78
2022/09/10 10:06:30;;;;;;;3.47;3.17;;;19.90;99.90;;;;;;4936607;29;20218;-78
2022/09/10 10:09:00;;;;;;;4.33;4.03;;;20.10;99.90;;;;;;4937593;29;20207;-77
2022/09/10 10:11:51;;;;;;;3.67;3.37;;;20.20;99.90;;;;;;4939518;29;20862;-78
2022/09/10 10:14:33;;;;;;;2.50;1.87;;;20.30;99.90;;;;;;4930256;29;20227;-79
2022/09/10 10:17:01;;;;;;;2.20;2.10;;;20.70;99.90;;;;;;4938925;29;20239;-78
2022/09/10 10:19:32;;;;;;;1.63;1.50;;;21.10;99.90;;;;;;4937129;29;20238;-79
2022/09/10 10:22:21;;;;;;;1.97;1.70;;;21.40;99.90;;;;;;4938005;29;20234;-79
2022/09/10 10:24:50;;;;;;;2.47;1.60;;;21.70;99.90;;;;;;4932230;29;20251;-79
2022/09/10 10:27:19;;;;;;;4.43;4.13;;;22.00;99.90;;;;;;4942045;29;20204;-77
2022/09/10 10:29:59;;;;;;;5.53;5.13;;;21.90;99.90;;;;;;4936662;29;20252;-78
2022/09/10 10:32:33;;;;;;;5.50;5.20;;;21.60;99.90;;;;;;4942700;29;20250;-77
2022/09/10 10:35:15;;;;;;;6.00;5.60;;;21.50;99.90;;;;;;4940069;29;20210;-78
2022/09/10 10:37:55;;;;;;;6.43;5.93;;;21.40;99.90;;;;;;4943100;29;20207;-78
2022/09/10 10:40:29;;;;;;;6.40;5.90;;;21.30;99.90;;;;;;4934458;29;20233;-78
2022/09/10 10:43:05;;;;;;;5.47;5.17;;;21.00;99.90;;;;;;4941773;29;20222;-77
2022/09/10 10:45:39;;;;;;;3.70;3.40;;;21.00;99.90;;;;;;4941939;29;20199;-78
2022/09/10 10:48:12;;;;;;;2.47;1.70;;;20.80;99.90;;;;;;4939351;29;20202;-78
2022/09/10 10:50:52;;;;;;;1.70;1.60;;;20.70;99.90;;;;;;4940648;29;20234;-78
2022/09/10 10:53:29;;;;;;;1.80;1.70;;;20.70;99.90;;;;;;4934625;29;20191;-77
2022/09/10 10:56:06;;;;;;;1.80;1.70;;;20.80;99.90;;;;;;4939251;29;20270;-77
2022/09/10 10:59:03;;;;;;;1.90;1.70;;;20.80;99.90;;;;;;4936169;29;20266;-77
2022/09/10 11:01:35;;;;;;;1.90;1.80;;;20.70;99.90;;;;;;4937334;29;20231;-77
2022/09/10 11:04:14;;;;;;;2.47;2.33;;;20.60;99.90;;;;;;4938764;29;20271;-77
2022/09/10 11:06:46;;;;;;;2.83;2.23;;;20.40;99.90;;;;;;4940395;29;20674;-78
2022/09/10 11:09:23;;;;;;;5.90;5.50;;;20.50;99.90;;;;;;4934333;29;20203;-78
2022/09/10 11:11:58;;;;;;;2.00;1.60;;;20.50;99.90;;;;;;4940916;29;20254;-78
2022/09/10 11:14:29;;;;;;;2.00;1.60;;;20.50;99.90;;;;;;4939874;29;20225;-78
2022/09/10 11:17:01;;;;;;;2.00;1.83;;;20.40;99.90;;;;;;4938598;29;20258;-77
2022/09/10 11:19:37;;;;;;;1.90;1.53;;;20.40;99.90;;;;;;4940394;29;20206;-77
2022/09/10 11:22:13;;;;;;;1.70;1.60;;;20.40;99.90;;;;;;4939495;29;20678;-77
2022/09/10 11:24:46;;;;;;;2.10;1.80;;;20.40;99.90;;;;;;4939632;29;20206;-78
2022/09/10 11:27:18;;;;;;;1.70;1.60;;;20.50;99.90;;;;;;4938768;29;20262;-78
2022/09/10 11:29:51;;;;;;;2.60;1.77;;;20.50;99.90;;;;;;4940725;29;20234;-77
2022/09/10 11:32:27;;;;;;;1.73;1.63;;;20.40;99.90;;;;;;4940966;29;20195;-77
2022/09/10 11:35:03;;;;;;;2.90;2.70;;;20.40;99.90;;;;;;4940467;29;20210;-78
2022/09/10 11:37:47;;;;;;;2.67;1.70;;;20.30;99.90;;;;;;4939106;29;20262;-79
2022/09/10 11:40:20;;;;;;;3.57;3.37;;;20.30;99.90;;;;;;4934038;29;20223;-78
2022/09/10 11:42:53;;;;;;;4.37;4.10;;;20.30;99.90;;;;;;4941474;29;20607;-78
2022/09/10 11:45:27;;;;;;;3.07;2.20;;;20.50;99.90;;;;;;4947375;28;20195;-79
2022/09/10 11:47:59;;;;;;;2.80;2.60;;;21.00;99.90;;;;;;4940661;29;20253;-77
2022/09/10 11:50:28;;;;;;;5.20;4.80;;;21.20;99.90;;;;;;4936820;29;20768;-78
2022/09/10 11:52:59;;;;;;;2.33;2.10;;;21.50;99.90;;;;;;4935620;29;20298;-77
2022/09/10 11:55:39;;;;;;;5.53;5.23;;;21.50;99.90;;;;;;4933950;29;20195;-77
2022/09/10 11:58:16;;;;;;;6.37;5.97;;;21.70;99.90;;;;;;4935623;29;20271;-77
2022/09/10 12:00:57;;;;;;;7.00;5.37;;;21.60;99.90;;;;;;4934101;29;20223;-76
2022/09/10 12:03:44;;;;;;;3.37;3.07;;;21.50;99.90;;;;;;4929304;29;20196;-76
2022/09/10 12:06:16;;;;;;;6.40;5.80;;;21.50;99.90;;;;;;4936485;29;20254;-77
2022/09/10 12:08:55;;;;;;;6.00;5.70;;;21.70;99.90;;;;;;4935686;29;20199;-77
2022/09/10 12:11:28;;;;;;;6.07;5.77;;;21.80;99.90;;;;;;4924299;29;20219;-77
2022/09/10 12:13:56;;;;;;;6.00;5.70;;;21.80;99.90;;;;;;4917479;29;20204;-77
2022/09/10 12:16:34;;;;;;;6.30;5.90;;;21.80;99.90;;;;;;4916008;29;20738;-77
2022/09/10 12:19:04;;;;;;;6.17;5.77;;;21.70;99.90;;;;;;4916357;29;20234;-77
2022/09/10 12:21:36;;;;;;;6.00;5.60;;;21.80;99.90;;;;;;4929242;29;20215;-76
2022/09/10 12:24:21;;;;;;;5.93;5.50;;;22.00;99.90;;;;;;4935206;29;20203;-77
2022/09/10 12:26:49;;;;;;;6.23;5.73;;;22.10;99.90;;;;;;4935106;29;20251;-78
2022/09/10 12:29:32;;;;;;;6.03;5.63;;;22.30;99.90;;;;;;4933819;29;20199;-77
2022/09/10 12:32:27;;;;;;;6.23;5.70;;;22.40;99.90;;;;;;4935046;29;20195;-77
2022/09/10 12:35:27;;;;;;;6.00;5.60;;;22.40;99.90;;;;;;4932878;29;20207;-77
2022/09/10 12:38:27;;;;;;;6.40;5.90;;;22.20;99.90;;;;;;4934630;29;20207;-77
2022/09/10 12:40:55;;;;;;;6.10;5.70;;;22.10;99.90;;;;;;4934694;29;20223;-77
2022/09/10 12:43:54;;;;;;;6.43;5.90;;;22.10;99.90;;;;;;4931591;29;20736;-77
2022/09/10 12:46:24;;;;;;;6.37;5.90;;;22.20;99.90;;;;;;4923654;29;20203;-77
2022/09/10 12:49:06;;;;;;;5.60;5.30;;;22.20;99.90;;;;;;4936569;29;20195;-78
2022/09/10 12:51:40;;;;;;;6.00;5.60;;;22.20;99.90;;;;;;4933379;29;20783;-77
2022/09/10 12:54:38;;;;;;;5.80;5.40;;;22.10;99.90;;;;;;4933088;29;20262;-76
2022/09/10 12:57:29;;;;;;;6.30;5.90;;;22.30;99.90;;;;;;4933507;29;20215;-77
2022/09/10 13:00:24;;;;;;;5.90;5.40;;;22.50;99.90;;;;;;4933398;29;20306;-76
2022/09/10 13:02:57;;;;;;;6.10;5.70;;;22.60;99.90;;;;;;4934581;29;20677;-77
2022/09/10 13:05:35;;;;;;;6.17;5.67;;;22.60;99.90;;;;;;4933146;29;20632;-76
2022/09/10 13:08:12;;;;;;;6.03;5.63;;;22.30;99.90;;;;;;4934337;29;20668;-77
2022/09/10 13:10:40;;;;;;;5.60;5.30;;;22.30;99.90;;;;;;4933046;29;20277;-77
2022/09/10 13:13:32;;;;;;;6.07;5.53;;;22.20;99.90;;;;;;4934337;29;20914;-77